Time;durP1;ratioP1;P1;durP2;ratioP2;P2;SDS_P1;SDS_P2;PMS_P1;PMS_P2;Temp;Humidity;BMP_temperature;BMP_pressure;BME280_temperature;BME280_humidity;BME280_pressure;Samples;Min_cycle;Max_cycle;Signal;HPM_P1;HPM_P2
2021/09/11 00:00:31;;;;;;;8.90;4.90;;;;;;;15.37;61.33;96912.01;114125;1201;47722;-83
2021/09/11 00:03:09;;;;;;;11.30;4.40;;;;;;;15.40;61.22;96914.44;114258;1206;63186;-83
2021/09/11 00:05:40;;;;;;;7.00;4.10;;;;;;;15.42;61.25;96910.92;114232;1202;49052;-84
2021/09/11 00:08:11;;;;;;;7.50;4.50;;;;;;;15.40;61.17;96913.27;114319;1204;55490;-83
2021/09/11 00:10:42;;;;;;;10.10;4.40;;;;;;;15.38;61.20;96911.66;114219;1205;44001;-83
2021/09/11 00:13:13;;;;;;;6.60;4.40;;;;;;;15.39;61.26;96910.25;114203;1202;52059;-83
2021/09/11 00:15:44;;;;;;;7.70;4.80;;;;;;;15.40;61.16;96908.88;114135;1206;48184;-83
2021/09/11 00:18:14;;;;;;;6.00;4.20;;;;;;;15.41;61.11;96906.40;114161;1207;33697;-83
2021/09/11 00:20:45;;;;;;;10.60;4.50;;;;;;;15.40;61.11;96910.23;113966;1201;56335;-83
2021/09/11 00:23:16;;;;;;;10.30;4.40;;;;;;;15.37;61.16;96906.02;114070;1201;42738;-83
2021/09/11 00:25:47;;;;;;;7.70;4.70;;;;;;;15.33;61.13;96902.98;114252;1202;36805;-83
2021/09/11 00:28:18;;;;;;;6.20;4.40;;;;;;;15.33;61.06;96901.98;114389;1206;46167;-84
2021/09/11 00:30:48;;;;;;;9.00;4.70;;;;;;;15.32;61.04;96900.25;114339;1203;40332;-83
2021/09/11 00:33:19;;;;;;;11.60;5.00;;;;;;;15.31;61.15;96901.38;114300;1205;53307;-83
2021/09/11 00:35:51;;;;;;;8.60;4.90;;;;;;;15.28;61.24;96899.97;114304;1202;36488;-83
2021/09/11 00:38:21;;;;;;;11.00;5.10;;;;;;;15.24;61.19;96899.96;114103;1203;35779;-83
2021/09/11 00:40:52;;;;;;;8.80;4.70;;;;;;;15.13;61.35;96900.34;114200;1202;38014;-83
2021/09/11 00:43:25;;;;;;;7.40;5.10;;;;;;;15.09;61.59;96900.65;114065;1201;54563;-82
2021/09/11 00:45:56;;;;;;;9.70;5.40;;;;;;;15.06;61.73;96903.48;114176;1202;36306;-83
2021/09/11 00:48:27;;;;;;;6.90;4.20;;;;;;;15.05;61.65;96905.42;114234;1201;52524;-83
2021/09/11 00:50:58;;;;;;;7.90;4.60;;;;;;;15.04;61.60;96898.54;114147;1202;47036;-83
2021/09/11 00:53:29;;;;;;;8.50;4.10;;;;;;;15.04;61.54;96897.16;114254;1197;51746;-83
2021/09/11 00:56:00;;;;;;;9.40;4.70;;;;;;;15.07;61.48;96900.85;114206;1206;61646;-83
2021/09/11 00:58:31;;;;;;;7.20;4.20;;;;;;;15.07;61.44;96897.58;114094;1201;45648;-84
2021/09/11 01:01:02;;;;;;;7.30;4.50;;;;;;;15.10;61.39;96898.06;114200;1196;38476;-83
2021/09/11 01:03:33;;;;;;;9.30;4.50;;;;;;;15.11;61.32;96895.42;114280;1201;50812;-83
2021/09/11 01:06:04;;;;;;;5.50;4.10;;;;;;;15.05;61.49;96895.16;114081;1203;35263;-83
2021/09/11 01:08:35;;;;;;;7.00;4.20;;;;;;;15.05;61.44;96894.95;114111;1201;38504;-83
2021/09/11 01:11:06;;;;;;;6.20;4.30;;;;;;;15.06;61.43;96892.64;114019;1205;50960;-83
2021/09/11 01:13:38;;;;;;;6.50;4.70;;;;;;;15.05;61.36;96893.15;114229;1207;39115;-83
2021/09/11 01:16:10;;;;;;;7.70;4.30;;;;;;;14.98;61.46;96895.11;114207;1202;53323;-83
2021/09/11 01:18:41;;;;;;;7.70;4.50;;;;;;;14.99;61.46;96893.98;114284;1201;34954;-83
2021/09/11 01:21:12;;;;;;;10.10;4.70;;;;;;;15.03;61.60;96894.95;114040;1201;46576;-83
2021/09/11 01:23:43;;;;;;;6.20;4.20;;;;;;;15.03;61.62;96893.66;114108;1201;49514;-82
2021/09/11 01:26:17;;;;;;;7.20;4.00;;;;;;;15.03;61.55;96893.22;114184;1201;46283;-83
2021/09/11 01:28:48;;;;;;;8.50;4.70;;;;;;;15.02;61.65;96893.40;114237;1202;44133;-82
2021/09/11 01:31:20;;;;;;;6.80;4.40;;;;;;;15.01;61.58;96890.77;114149;1202;37551;-83
2021/09/11 01:33:51;;;;;;;7.30;4.50;;;;;;;15.01;61.61;96890.29;114366;1202;47251;-83
2021/09/11 01:36:22;;;;;;;6.60;4.00;;;;;;;15.02;61.57;96891.77;114329;1202;27237;-84
2021/09/11 01:38:53;;;;;;;5.80;4.20;;;;;;;15.04;61.62;96893.58;114239;1202;53463;-82
2021/09/11 01:41:23;;;;;;;8.00;4.10;;;;;;;15.03;61.48;96892.69;114255;1197;42998;-82
2021/09/11 01:43:54;;;;;;;5.80;3.60;;;;;;;15.05;61.48;96895.44;114234;1202;39556;-82
2021/09/11 01:46:27;;;;;;;5.50;4.00;;;;;;;15.06;61.32;96892.21;114114;1202;43198;-83
2021/09/11 01:48:57;;;;;;;8.00;4.30;;;;;;;15.08;61.13;96893.42;114141;1201;39882;-83
2021/09/11 01:51:28;;;;;;;6.70;4.10;;;;;;;15.10;61.22;96893.74;114253;1207;32897;-82
2021/09/11 01:53:59;;;;;;;5.50;3.70;;;;;;;15.11;61.03;96897.45;114190;1197;49250;-83
2021/09/11 01:56:30;;;;;;;6.00;3.90;;;;;;;15.12;61.03;96895.23;114368;1200;33446;-83
2021/09/11 01:59:01;;;;;;;6.00;4.10;;;;;;;15.13;60.96;96895.11;114273;1207;40240;-83
2021/09/11 02:01:32;;;;;;;6.90;4.20;;;;;;;15.10;60.96;96893.79;114244;1201;39567;-83
2021/09/11 02:04:03;;;;;;;4.70;3.70;;;;;;;15.10;60.90;96892.14;114206;1206;74387;-82
2021/09/11 02:06:33;;;;;;;7.20;4.40;;;;;;;15.09;60.95;96895.31;114236;1202;38478;-83
2021/09/11 02:09:04;;;;;;;8.40;4.20;;;;;;;15.08;60.98;96892.29;114158;1202;37585;-82
2021/09/11 02:11:35;;;;;;;8.70;4.50;;;;;;;15.06;60.93;96896.38;114102;1203;39722;-83
2021/09/11 02:14:06;;;;;;;8.70;4.60;;;;;;;15.05;60.99;96892.17;114149;1201;49326;-83
2021/09/11 02:16:37;;;;;;;8.60;4.30;;;;;;;15.02;60.94;96894.65;114045;1201;34446;-83
2021/09/11 02:19:08;;;;;;;9.30;4.60;;;;;;;15.01;61.03;96892.95;114314;1202;34618;-83
2021/09/11 02:21:38;;;;;;;7.50;5.00;;;;;;;15.00;61.07;96894.70;114170;1201;45703;-83
2021/09/11 02:24:09;;;;;;;6.70;4.70;;;;;;;14.98;61.11;96895.25;114173;1207;51106;-83
2021/09/11 02:26:40;;;;;;;6.90;3.80;;;;;;;14.95;61.06;96897.48;114214;1202;62317;-83
2021/09/11 02:29:11;;;;;;;7.90;4.50;;;;;;;14.94;61.07;96897.61;114222;1201;35525;-83
2021/09/11 02:31:42;;;;;;;6.90;3.80;;;;;;;14.93;61.12;96894.48;114220;1203;54387;-83
2021/09/11 02:34:13;;;;;;;7.30;4.30;;;;;;;14.91;61.22;96894.30;114075;1201;51843;-83
2021/09/11 02:36:44;;;;;;;6.20;4.50;;;;;;;14.89;61.22;96893.27;114095;1206;52979;-83
2021/09/11 02:39:15;;;;;;;5.40;3.70;;;;;;;14.87;61.21;96891.59;114143;1201;37880;-83
2021/09/11 02:41:46;;;;;;;8.60;4.50;;;;;;;14.88;61.21;96894.40;114134;1203;38332;-83
2021/09/11 02:44:17;;;;;;;5.00;3.70;;;;;;;14.88;61.21;96895.74;114150;1201;42357;-83
2021/09/11 02:46:48;;;;;;;6.40;4.00;;;;;;;14.87;61.21;96896.77;114223;1206;34477;-82
2021/09/11 02:49:19;;;;;;;8.80;4.70;;;;;;;14.85;61.30;96897.98;114159;1201;55107;-82
2021/09/11 02:51:50;;;;;;;6.30;4.40;;;;;;;14.79;61.33;96898.55;114139;1203;45255;-83
2021/09/11 02:54:21;;;;;;;8.40;4.00;;;;;;;14.76;61.37;96900.51;114328;1201;46879;-83
2021/09/11 02:56:52;;;;;;;8.50;4.40;;;;;;;14.76;61.43;96899.13;114329;1205;56612;-83
2021/09/11 02:59:23;;;;;;;8.20;4.20;;;;;;;14.75;61.48;96899.77;114097;1202;41704;-80
2021/09/11 03:01:54;;;;;;;8.20;4.20;;;;;;;14.75;61.49;96892.80;114223;1196;43252;-82
2021/09/11 03:04:24;;;;;;;5.70;3.90;;;;;;;14.73;61.60;96892.19;114216;1202;45214;-82
2021/09/11 03:06:55;;;;;;;7.60;4.50;;;;;;;14.72;61.54;96895.95;114132;1201;46629;-83
2021/09/11 03:09:26;;;;;;;6.70;4.30;;;;;;;14.69;61.61;96894.35;114233;1200;70029;-82
2021/09/11 03:11:57;;;;;;;7.20;4.50;;;;;;;14.68;61.70;96897.92;114124;1201;50908;-83
2021/09/11 03:14:28;;;;;;;7.20;4.70;;;;;;;14.67;61.74;96898.14;114197;1201;49554;-83
2021/09/11 03:16:59;;;;;;;8.20;4.40;;;;;;;14.69;61.86;96898.39;114168;1203;46090;-83
2021/09/11 03:19:30;;;;;;;8.80;4.20;;;;;;;14.69;61.79;96894.79;114220;1196;61171;-83
2021/09/11 03:22:01;;;;;;;7.60;4.40;;;;;;;14.68;61.77;96888.41;114266;1201;53962;-83
2021/09/11 03:24:32;;;;;;;7.50;4.70;;;;;;;14.67;61.94;96886.77;114103;1200;45986;-83
2021/09/11 03:27:03;;;;;;;7.60;4.20;;;;;;;14.65;61.84;96885.74;114184;1200;41689;-83
2021/09/11 03:29:33;;;;;;;8.20;4.20;;;;;;;14.63;61.85;96887.27;114231;1200;42829;-83
2021/09/11 03:32:05;;;;;;;8.50;4.70;;;;;;;14.62;61.85;96885.03;114026;1201;42563;-83
2021/09/11 03:34:36;;;;;;;5.40;3.80;;;;;;;14.61;61.85;96885.98;114008;1202;36820;-83
2021/09/11 03:37:07;;;;;;;6.40;4.20;;;;;;;14.59;61.93;96879.29;114110;1202;35442;-83
2021/09/11 03:39:38;;;;;;;6.20;4.60;;;;;;;14.59;61.98;96886.77;114095;1202;41310;-83
2021/09/11 03:42:08;;;;;;;4.60;3.70;;;;;;;14.59;61.93;96882.27;114031;1203;44981;-83
2021/09/11 03:44:39;;;;;;;6.90;4.20;;;;;;;14.59;61.82;96885.16;114222;1200;42637;-82
2021/09/11 03:47:10;;;;;;;5.30;3.70;;;;;;;14.56;61.89;96882.62;114224;1201;34537;-82
2021/09/11 03:49:41;;;;;;;6.30;4.00;;;;;;;14.54;61.99;96882.06;113911;1202;63418;-82
2021/09/11 03:52:12;;;;;;;6.80;3.80;;;;;;;14.53;61.97;96878.83;114066;1202;38325;-82
2021/09/11 03:54:43;;;;;;;6.80;3.80;;;;;;;14.53;62.06;96873.05;114082;1202;49256;-83
2021/09/11 03:57:14;;;;;;;8.00;4.10;;;;;;;14.52;62.05;96870.38;114249;1200;45076;-83
2021/09/11 03:59:45;;;;;;;8.00;5.30;;;;;;;14.50;62.05;96869.07;114304;1200;26883;-83
2021/09/11 04:02:15;;;;;;;80.50;43.60;;;;;;;14.53;62.16;96870.45;114157;1206;34346;-83
2021/09/11 04:04:47;;;;;;;190.70;96.10;;;;;;;14.53;61.96;96874.73;114120;1200;36241;-83
2021/09/11 04:07:18;;;;;;;58.90;38.40;;;;;;;14.51;61.98;96873.70;114076;1201;51599;-83
2021/09/11 04:09:49;;;;;;;14.30;8.40;;;;;;;14.47;62.03;96871.30;114086;1203;38356;-83
2021/09/11 04:12:20;;;;;;;6.50;4.60;;;;;;;14.46;62.00;96867.21;114364;1202;30032;-83
2021/09/11 04:14:51;;;;;;;6.40;4.20;;;;;;;14.46;62.06;96869.88;114210;1203;34748;-83
2021/09/11 04:17:22;;;;;;;7.50;4.10;;;;;;;14.48;62.10;96875.12;114139;1207;31683;-83
2021/09/11 04:19:53;;;;;;;7.40;4.20;;;;;;;14.52;61.97;96876.56;114181;1201;41581;-83
2021/09/11 04:22:24;;;;;;;8.10;4.40;;;;;;;14.55;61.86;96879.64;114073;1196;59647;-81
2021/09/11 04:24:54;;;;;;;9.10;4.30;;;;;;;14.62;61.82;96879.77;114129;1202;42802;-82
2021/09/11 04:27:25;;;;;;;7.20;4.40;;;;;;;14.77;61.72;96876.26;114057;1201;51954;-82
2021/09/11 04:29:57;;;;;;;6.10;3.90;;;;;;;14.97;61.37;96879.86;113944;1196;66131;-82
2021/09/11 04:32:31;;;;;;;8.40;4.80;;;;;;;15.06;61.18;96880.25;113941;1207;80817;-81
2021/09/11 04:35:02;;;;;;;8.20;5.70;;;;;;;15.16;61.02;96880.57;114101;1201;61719;-82
2021/09/11 04:37:35;;;;;;;9.20;5.30;;;;;;;15.35;61.03;96878.97;114127;1201;64986;-82
2021/09/11 04:40:09;;;;;;;5.70;3.80;;;;;;;15.61;60.60;96876.04;113962;1203;56674;-82
2021/09/11 04:42:40;;;;;;;7.10;4.50;;;;;;;15.94;60.21;96879.27;114085;1200;50364;-82
2021/09/11 04:45:12;;;;;;;7.10;4.00;;;;;;;16.22;59.64;96882.02;114159;1207;61759;-81
2021/09/11 04:47:43;;;;;;;5.40;3.80;;;;;;;16.55;58.99;96879.84;114120;1200;51059;-82
2021/09/11 04:50:14;;;;;;;6.00;3.90;;;;;;;16.85;58.21;96884.18;114121;1201;66373;-82
2021/09/11 04:52:45;;;;;;;6.50;3.90;;;;;;;17.37;57.84;96887.23;114031;1201;37309;-82
2021/09/11 04:55:16;;;;;;;6.10;3.90;;;;;;;18.11;56.63;96886.88;114121;1201;54608;-83
2021/09/11 04:57:47;;;;;;;5.20;3.50;;;;;;;18.82;55.74;96884.27;113954;1195;70868;-82
2021/09/11 05:00:18;;;;;;;5.90;4.00;;;;;;;19.51;53.86;96885.48;114095;1201;54373;-83
2021/09/11 05:02:49;;;;;;;6.30;4.30;;;;;;;19.78;52.24;96889.10;114150;1200;33176;-83
2021/09/11 05:05:21;;;;;;;7.60;3.70;;;;;;;19.94;51.98;96889.89;112180;1201;2466271;-82
2021/09/11 05:07:54;;;;;;;8.10;4.20;;;;;;;20.06;50.78;96892.62;114128;1201;58421;-83
2021/09/11 05:10:25;;;;;;;5.20;4.00;;;;;;;20.04;50.14;96891.25;114234;1202;43630;-82
2021/09/11 05:12:56;;;;;;;7.00;3.80;;;;;;;20.27;49.57;96890.70;114035;1201;57677;-82
2021/09/11 05:15:27;;;;;;;7.30;3.40;;;;;;;20.75;49.21;96894.46;114070;1202;33778;-81
2021/09/11 05:17:58;;;;;;;6.90;3.80;;;;;;;21.28;48.66;96896.72;113831;1201;66894;-82
2021/09/11 05:20:30;;;;;;;6.70;4.40;;;;;;;21.79;47.24;96897.11;113912;1202;85149;-82
2021/09/11 05:23:01;;;;;;;6.30;4.10;;;;;;;22.23;47.01;96902.00;114216;1202;46494;-82
2021/09/11 05:25:32;;;;;;;7.40;3.80;;;;;;;22.96;46.68;96896.95;114025;1201;77541;-83
2021/09/11 05:28:03;;;;;;;7.90;3.90;;;;;;;23.72;45.26;96898.08;114110;1202;36334;-83
2021/09/11 05:30:34;;;;;;;5.00;3.30;;;;;;;24.25;44.90;96903.30;114078;1208;74704;-83
2021/09/11 05:33:05;;;;;;;5.30;3.60;;;;;;;24.99;43.73;96902.05;114143;1202;34154;-83
2021/09/11 05:35:37;;;;;;;5.20;3.40;;;;;;;25.59;42.48;96900.45;114130;1204;64291;-83
2021/09/11 05:38:08;;;;;;;5.80;3.30;;;;;;;25.96;40.97;96899.05;114147;1201;53878;-85
2021/09/11 05:40:38;;;;;;;5.80;3.70;;;;;;;26.03;40.17;96899.84;114018;1203;46522;-85
2021/09/11 05:43:09;;;;;;;3.70;3.30;;;;;;;25.94;39.87;96900.97;114114;1207;52073;-85
2021/09/11 05:45:40;;;;;;;6.70;3.30;;;;;;;25.93;39.56;96903.13;114088;1208;52723;-84
2021/09/11 05:48:12;;;;;;;4.30;3.40;;;;;;;26.06;39.16;96903.90;114036;1202;31686;-85
2021/09/11 05:50:43;;;;;;;4.50;3.60;;;;;;;25.56;38.38;96898.93;114007;1202;34863;-85
2021/09/11 05:53:14;;;;;;;6.80;3.40;;;;;;;24.88;38.74;96901.21;114104;1201;33803;-84
2021/09/11 05:55:45;;;;;;;5.10;3.40;;;;;;;24.86;38.89;96898.60;113950;1208;31279;-87
2021/09/11 05:58:16;;;;;;;5.40;3.60;;;;;;;25.14;38.44;96895.65;114211;1200;26596;-86
2021/09/11 06:00:47;;;;;;;6.70;4.30;;;;;;;25.55;37.79;96889.91;114148;1195;27482;-86
2021/09/11 06:03:18;;;;;;;5.20;3.40;;;;;;;25.92;37.29;96888.21;114213;1203;23726;-87
2021/09/11 06:05:49;;;;;;;5.40;3.60;;;;;;;25.98;35.99;96890.60;114171;1202;25723;-87
2021/09/11 06:08:20;;;;;;;5.70;3.50;;;;;;;25.97;36.63;96887.89;114219;1202;39638;-87
2021/09/11 06:10:51;;;;;;;4.90;3.50;;;;;;;26.58;36.48;96886.10;114181;1202;25663;-86
2021/09/11 06:13:22;;;;;;;4.50;3.10;;;;;;;27.16;36.17;96890.81;114246;1202;25422;-87
2021/09/11 06:15:53;;;;;;;4.30;3.70;;;;;;;27.61;34.91;96892.02;114167;1203;28773;-86
2021/09/11 06:18:25;;;;;;;5.10;3.80;;;;;;;27.73;34.39;96894.34;114114;1203;28303;-84
2021/09/11 06:20:57;;;;;;;3.90;3.40;;;;;;;27.94;34.63;96894.41;114070;1201;24049;-85
2021/09/11 06:23:28;;;;;;;4.00;3.00;;;;;;;28.35;34.02;96892.12;114155;1202;27184;-86
2021/09/11 06:26:00;;;;;;;4.20;3.30;;;;;;;28.51;32.84;96887.85;114251;1202;24101;-85
2021/09/11 06:28:31;;;;;;;4.60;3.40;;;;;;;28.24;33.15;96889.66;114244;1202;24529;-85
2021/09/11 06:31:02;;;;;;;5.70;3.00;;;;;;;28.63;33.45;96890.90;114190;1201;26094;-85
2021/09/11 06:33:33;;;;;;;4.80;3.30;;;;;;;29.18;33.38;96891.90;114189;1203;33406;-85
2021/09/11 06:36:10;;;;;;;5.20;3.80;;;;;;;29.63;31.88;96892.84;114187;1208;28179;-85
2021/09/11 06:38:41;;;;;;;3.60;3.20;;;;;;;29.60;32.10;96894.55;114225;1203;43467;-85
2021/09/11 06:41:11;;;;;;;5.30;3.70;;;;;;;29.87;31.65;96895.15;114161;1201;27297;-85
2021/09/11 06:43:42;;;;;;;5.00;3.40;;;;;;;30.11;31.42;96900.14;114109;1208;31628;-85
2021/09/11 06:46:13;;;;;;;9.70;3.90;;;;;;;30.60;31.04;96895.77;114144;1201;60243;-85
2021/09/11 06:48:44;;;;;;;4.00;3.60;;;;;;;30.47;29.93;96894.45;114066;1201;55001;-83
2021/09/11 06:51:16;;;;;;;3.90;3.20;;;;;;;30.10;30.65;96898.34;114036;1208;38069;-82
2021/09/11 06:53:47;;;;;;;4.70;3.40;;;;;;;30.12;30.11;96898.49;114297;1201;32977;-82
2021/09/11 06:56:18;;;;;;;5.40;3.30;;;;;;;29.88;30.26;96897.89;114216;1201;31336;-83
2021/09/11 06:58:49;;;;;;;4.60;3.70;;;;;;;29.92;30.86;96896.94;114011;1202;69509;-82
2021/09/11 07:01:23;;;;;;;4.60;3.50;;;;;;;30.19;30.62;96895.33;114174;1203;36416;-83
2021/09/11 07:03:54;;;;;;;4.10;3.50;;;;;;;30.71;30.92;96900.98;114089;1201;34338;-82
2021/09/11 07:06:25;;;;;;;5.10;3.60;;;;;;;31.33;30.02;96908.23;114100;1201;37738;-82
2021/09/11 07:08:56;;;;;;;5.60;3.60;;;;;;;31.57;29.11;96906.41;114085;1202;34040;-82
2021/09/11 07:11:27;;;;;;;4.20;3.60;;;;;;;31.46;29.18;96903.40;114124;1203;35149;-83
2021/09/11 07:13:58;;;;;;;5.20;3.50;;;;;;;31.36;28.85;96904.61;114123;1203;44614;-83
2021/09/11 07:16:29;;;;;;;4.20;3.00;;;;;;;31.31;28.72;96907.55;114036;1202;41194;-81
2021/09/11 07:19:00;;;;;;;4.60;3.80;;;;;;;30.85;28.15;96905.82;113997;1207;39346;-82
2021/09/11 07:21:31;;;;;;;5.20;3.50;;;;;;;30.77;29.41;96904.41;114029;1204;34776;-82
2021/09/11 07:24:02;;;;;;;4.60;3.70;;;;;;;31.02;29.25;96908.27;114054;1201;51563;-82
2021/09/11 07:26:33;;;;;;;5.30;3.80;;;;;;;31.21;29.20;96912.34;113884;1203;60983;-83
2021/09/11 07:29:05;;;;;;;5.00;4.00;;;;;;;31.18;28.98;96916.83;113980;1202;36202;-82
2021/09/11 07:31:36;;;;;;;6.50;3.40;;;;;;;31.44;29.50;96910.61;113825;1197;36680;-82
2021/09/11 07:34:07;;;;;;;4.90;3.60;;;;;;;32.05;29.33;96918.23;113978;1202;50498;-83
2021/09/11 07:36:38;;;;;;;6.90;3.80;;;;;;;32.70;28.35;96909.70;114033;1202;61076;-83
2021/09/11 07:39:09;;;;;;;4.30;3.40;;;;;;;32.80;28.16;96910.75;114152;1202;39341;-83
2021/09/11 07:41:41;;;;;;;5.00;3.70;;;;;;;32.85;28.35;96910.05;114069;1200;42622;-85
2021/09/11 07:44:12;;;;;;;6.00;4.00;;;;;;;33.11;28.53;96910.10;114077;1203;36592;-84
2021/09/11 07:46:43;;;;;;;6.30;3.80;;;;;;;33.53;28.92;96917.72;113996;1196;37822;-84
2021/09/11 07:49:14;;;;;;;6.30;3.90;;;;;;;34.01;28.47;96917.38;114168;1203;30012;-86
2021/09/11 07:51:45;;;;;;;4.80;3.80;;;;;;;34.37;28.02;96917.72;114154;1203;36002;-86
2021/09/11 07:54:16;;;;;;;7.80;4.00;;;;;;;34.34;27.60;96918.01;114101;1203;68641;-84
2021/09/11 07:56:47;;;;;;;5.90;4.00;;;;;;;34.03;27.33;96919.84;114114;1203;45265;-86
2021/09/11 07:59:18;;;;;;;6.20;4.30;;;;;;;33.57;28.16;96919.17;114108;1203;69876;-85
2021/09/11 08:01:49;;;;;;;5.60;3.80;;;;;;;33.21;28.25;96919.89;114125;1201;56061;-86
2021/09/11 08:04:21;;;;;;;8.10;4.00;;;;;;;32.94;28.32;96917.83;114015;1202;71208;-86
2021/09/11 08:06:52;;;;;;;6.40;3.70;;;;;;;32.05;28.45;96920.96;114078;1203;90400;-86
2021/09/11 08:09:23;;;;;;;6.00;3.70;;;;;;;31.16;29.17;96923.27;114138;1201;55994;-86
2021/09/11 08:11:54;;;;;;;4.40;3.60;;;;;;;30.13;30.03;96918.86;114123;1201;33087;-84
2021/09/11 08:14:26;;;;;;;6.10;3.70;;;;;;;29.53;31.18;96917.61;114021;1202;37044;-85
2021/09/11 08:16:57;;;;;;;6.40;4.20;;;;;;;29.18;31.52;96917.42;114209;1200;28498;-85
2021/09/11 08:19:28;;;;;;;4.80;3.20;;;;;;;28.88;32.04;96919.77;114105;1197;45601;-84
2021/09/11 08:21:59;;;;;;;6.00;3.00;;;;;;;28.70;32.52;96918.58;113993;1202;50994;-86
2021/09/11 08:24:30;;;;;;;5.70;3.60;;;;;;;28.72;32.88;96917.17;113997;1202;49199;-86
2021/09/11 08:27:01;;;;;;;6.60;4.10;;;;;;;28.72;32.56;96916.41;114093;1201;47198;-87
2021/09/11 08:29:32;;;;;;;6.60;3.70;;;;;;;28.25;32.98;96912.96;114038;1202;57228;-88
2021/09/11 08:32:04;;;;;;;4.80;4.20;;;;;;;28.09;33.75;96911.67;114043;1203;58771;-86
2021/09/11 08:34:36;;;;;;;4.90;3.40;;;;;;;28.04;33.88;96915.09;114272;1202;27345;-88
2021/09/11 08:37:08;;;;;;;9.10;3.90;;;;;;;27.92;33.95;96917.08;113998;1201;71641;-87
2021/09/11 08:39:39;;;;;;;5.20;3.40;;;;;;;27.68;34.40;96913.15;114102;1198;42910;-87
2021/09/11 08:42:12;;;;;;;5.40;3.50;;;;;;;27.34;34.58;96909.84;114085;1201;43789;-88
2021/09/11 08:44:43;;;;;;;6.10;3.40;;;;;;;27.08;35.43;96914.96;114038;1203;40907;-86
2021/09/11 08:47:14;;;;;;;5.20;3.10;;;;;;;26.98;35.28;96912.31;114310;1201;31053;-87
2021/09/11 08:49:45;;;;;;;5.10;3.30;;;;;;;26.89;35.96;96909.36;114273;1201;27458;-86
2021/09/11 08:52:16;;;;;;;5.30;3.90;;;;;;;26.99;36.28;96909.20;114302;1202;29172;-85
2021/09/11 08:54:47;;;;;;;4.70;3.60;;;;;;;26.85;36.08;96908.23;114256;1202;32622;-86
2021/09/11 08:57:25;;;;;;;5.00;3.60;;;;;;;26.52;36.64;96907.42;114332;1202;29282;-85
2021/09/11 08:59:57;;;;;;;5.10;3.50;;;;;;;26.39;37.08;96902.23;114384;1200;27894;-85
2021/09/11 09:02:28;;;;;;;7.10;3.80;;;;;;;26.03;37.09;96896.02;114287;1203;34039;-86
2021/09/11 09:05:02;;;;;;;5.00;3.70;;;;;;;25.93;37.63;96892.52;114373;1200;28287;-87
2021/09/11 09:07:38;;;;;;;6.20;4.00;;;;;;;25.83;37.62;96890.74;114115;1201;55847;-87
2021/09/11 09:10:13;;;;;;;6.00;4.00;;;;;;;25.56;38.16;96887.29;114012;1202;47457;-86
2021/09/11 09:12:46;;;;;;;5.50;3.40;;;;;;;25.39;38.90;96886.69;114149;1203;48256;-85
2021/09/11 09:15:20;;;;;;;6.30;3.30;;;;;;;25.28;38.44;96888.31;114015;1203;64798;-85
2021/09/11 09:17:53;;;;;;;7.40;3.80;;;;;;;24.96;38.78;96889.39;114355;1201;35976;-86
2021/09/11 09:20:27;;;;;;;6.40;3.50;;;;;;;24.68;39.67;96886.31;114129;1202;41409;-84
2021/09/11 09:23:18;;;;;;;6.60;3.90;;;;;;;24.66;40.07;96889.85;113979;1202;45597;-87
2021/09/11 09:25:50;;;;;;;5.20;3.60;;;;;;;24.65;40.05;96893.48;114165;1203;44445;-87
2021/09/11 09:28:21;;;;;;;5.80;3.50;;;;;;;24.54;39.91;96893.21;114108;1208;48509;-87
2021/09/11 09:30:52;;;;;;;6.70;3.40;;;;;;;24.29;40.02;96891.23;114204;1201;43191;-87
2021/09/11 09:33:27;;;;;;;5.20;3.30;;;;;;;24.18;40.60;96890.39;114209;1203;35219;-87
2021/09/11 09:36:02;;;;;;;7.60;3.60;;;;;;;24.20;40.88;96892.98;114211;1200;37997;-86
2021/09/11 09:38:33;;;;;;;4.30;3.30;;;;;;;24.39;40.39;96892.33;114222;1201;40938;-87
2021/09/11 09:41:14;;;;;;;7.30;3.70;;;;;;;24.40;40.13;96890.10;114117;1201;55528;-86
2021/09/11 10:02:01;;;;;;;6.10;2.90;;;;;;;24.53;38.06;96884.06;112369;1216;591891;-89
2021/09/11 10:04:37;;;;;;;4.50;2.90;;;;;;;24.61;37.57;96880.70;113828;1207;30797;-92
2021/09/11 10:07:10;;;;;;;5.20;2.80;;;;;;;24.59;37.58;96881.44;113711;1208;27435;-90
2021/09/11 10:09:44;;;;;;;3.90;2.70;;;;;;;24.63;36.73;96879.17;113648;1207;27766;-91
2021/09/11 10:12:39;;;;;;;4.90;2.40;;;;;;;24.66;36.08;96878.16;113683;1207;29872;-93
2021/09/11 10:15:28;;;;;;;4.80;2.30;;;;;;;24.71;36.27;96880.86;113702;1208;31162;-91
2021/09/11 10:18:01;;;;;;;4.90;2.50;;;;;;;24.72;35.99;96881.02;113866;1205;27993;-93
2021/09/11 10:21:09;;;;;;;5.00;2.90;;;;;;;24.77;35.90;96881.50;113894;1205;28268;-91
2021/09/11 10:23:40;;;;;;;5.90;2.70;;;;;;;24.59;34.98;96877.02;113863;1205;25503;-91
2021/09/11 10:26:42;;;;;;;5.10;2.70;;;;;;;24.48;35.61;96881.09;112021;1205;2325376;-91
2021/09/11 10:29:44;;;;;;;4.90;3.00;;;;;;;24.51;36.24;96880.55;113698;1201;57952;-92
2021/09/11 10:32:22;;;;;;;4.50;2.70;;;;;;;24.50;36.42;96882.63;113850;1207;30594;-93
2021/09/11 10:35:01;;;;;;;6.40;2.60;;;;;;;24.51;35.73;96879.08;113789;1205;53991;-90
2021/09/11 10:37:38;;;;;;;3.50;2.20;;;;;;;24.46;35.14;96883.39;113886;1205;35753;-92
2021/09/11 10:40:31;;;;;;;5.30;2.50;;;;;;;24.41;34.49;96877.05;113801;1208;53368;-89
2021/09/11 10:43:20;;;;;;;4.00;2.60;;;;;;;24.48;35.48;96875.92;113802;1212;49825;-91
2021/09/11 10:46:06;;;;;;;4.10;3.00;;;;;;;24.55;34.73;96875.34;113836;1205;53223;-91
2021/09/11 10:48:49;;;;;;;5.70;2.90;;;;;;;24.57;34.78;96874.05;113853;1204;50636;-92
2021/09/11 10:51:28;;;;;;;5.40;2.50;;;;;;;24.63;35.43;96876.62;113875;1204;30453;-93
2021/09/11 10:54:04;;;;;;;5.90;3.00;;;;;;;24.67;35.25;96875.47;113841;1205;29971;-92
2021/09/11 10:56:37;;;;;;;5.20;2.90;;;;;;;24.69;35.66;96869.28;113901;1205;28930;-90
2021/09/11 10:59:41;;;;;;;6.70;2.60;;;;;;;24.60;35.37;96868.67;113867;1212;29002;-94
2021/09/11 11:02:35;;;;;;;8.10;3.00;;;;;;;24.35;34.92;96866.63;113824;1205;29125;-91
2021/09/11 11:05:10;;;;;;;5.00;2.80;;;;;;;24.17;35.01;96866.13;113836;1204;28110;-91
2021/09/11 11:07:48;;;;;;;5.40;2.60;;;;;;;24.06;34.81;96863.08;114023;1205;31382;-92
2021/09/11 11:10:21;;;;;;;4.10;2.80;;;;;;;23.93;34.79;96862.53;113936;1204;27231;-93
2021/09/11 11:12:55;;;;;;;5.90;2.70;;;;;;;23.83;34.82;96862.88;114001;1205;30169;-93
2021/09/11 11:15:28;;;;;;;4.70;2.80;;;;;;;23.76;35.07;96864.28;114076;1200;40022;-90
2021/09/11 11:18:01;;;;;;;6.60;2.90;;;;;;;23.76;35.75;96860.80;114091;1202;55895;-93
2021/09/11 11:20:33;;;;;;;3.50;2.70;;;;;;;23.85;36.41;96860.92;114105;1203;56673;-93
2021/09/11 11:23:05;;;;;;;4.10;2.80;;;;;;;23.93;36.04;96860.30;114090;1202;61453;-90
2021/09/11 11:25:38;;;;;;;5.40;3.10;;;;;;;23.95;35.77;96859.80;114239;1201;27184;-91
2021/09/11 11:28:14;;;;;;;5.70;2.80;;;;;;;23.98;35.61;96855.51;114195;1205;29927;-92
2021/09/11 11:30:47;;;;;;;4.10;2.90;;;;;;;24.02;35.25;96852.77;114167;1201;37116;-92
2021/09/11 11:33:19;;;;;;;6.40;3.30;;;;;;;23.99;34.61;96850.65;114200;1204;27476;-90
2021/09/11 11:35:50;;;;;;;5.30;2.70;;;;;;;24.08;35.80;96848.64;114211;1201;27032;-91
2021/09/11 11:38:21;;;;;;;4.70;2.80;;;;;;;24.20;35.75;96845.21;114179;1202;26498;-92
2021/09/11 11:40:54;;;;;;;4.70;2.80;;;;;;;24.18;35.39;96846.58;114187;1206;24228;-94
2021/09/11 11:43:26;;;;;;;6.70;2.80;;;;;;;24.21;35.25;96842.91;114247;1206;26787;-92
2021/09/11 11:45:59;;;;;;;4.60;3.00;;;;;;;24.32;34.13;96839.62;114218;1201;28599;-92
2021/09/11 11:48:30;;;;;;;5.50;3.20;;;;;;;24.37;34.07;96839.17;114093;1202;40475;-91
2021/09/11 11:51:12;;;;;;;5.30;3.40;;;;;;;24.40;33.69;96835.98;114191;1206;53923;-90
2021/09/11 11:53:43;;;;;;;6.30;3.40;;;;;;;24.40;33.69;96837.92;114206;1205;33841;-91
2021/09/11 11:56:14;;;;;;;7.10;3.40;;;;;;;24.35;33.68;96832.33;114254;1202;24831;-92
2021/09/11 11:58:57;;;;;;;8.20;3.00;;;;;;;24.36;34.10;96833.67;114261;1201;25972;-91
2021/09/11 12:01:33;;;;;;;5.70;2.80;;;;;;;24.43;34.23;96832.23;114191;1202;29868;-92
2021/09/11 12:04:14;;;;;;;6.30;3.10;;;;;;;24.29;33.68;96830.28;114211;1205;28931;-89
2021/09/11 12:06:52;;;;;;;6.40;2.70;;;;;;;24.27;34.36;96826.98;114238;1205;26037;-89